sensor_id;sensor_type;location;lat;lon;timestamp;P1;durP1;ratioP1;P2;durP2;ratioP2
2996;SDS011;1508;48.744;9.110;2022-07-03T00:02:02;2.17;;;1.67;;
2996;SDS011;1508;48.744;9.110;2022-07-03T00:04:48;4.20;;;1.53;;
2996;SDS011;1508;48.744;9.110;2022-07-03T00:07:34;2.40;;;2.10;;
2996;SDS011;1508;48.744;9.110;2022-07-03T00:10:22;2.87;;;2.00;;
2996;SDS011;1508;48.744;9.110;2022-07-03T00:13:08;1.60;;;1.50;;
2996;SDS011;1508;48.744;9.110;2022-07-03T00:15:54;2.07;;;1.87;;
2996;SDS011;1508;48.744;9.110;2022-07-03T00:18:40;2.23;;;1.50;;
2996;SDS011;1508;48.744;9.110;2022-07-03T00:21:29;1.80;;;1.70;;
2996;SDS011;1508;48.744;9.110;2022-07-03T00:24:31;2.17;;;1.80;;
2996;SDS011;1508;48.744;9.110;2022-07-03T00:27:24;2.60;;;1.70;;
2996;SDS011;1508;48.744;9.110;2022-07-03T00:30:10;3.00;;;1.97;;
2996;SDS011;1508;48.744;9.110;2022-07-03T00:32:56;2.20;;;1.87;;
2996;SDS011;1508;48.744;9.110;2022-07-03T00:35:42;3.43;;;1.73;;
2996;SDS011;1508;48.744;9.110;2022-07-03T00:38:28;1.83;;;1.60;;
2996;SDS011;1508;48.744;9.110;2022-07-03T00:41:28;2.13;;;1.93;;
2996;SDS011;1508;48.744;9.110;2022-07-03T00:44:15;2.10;;;1.90;;
2996;SDS011;1508;48.744;9.110;2022-07-03T00:47:04;2.37;;;2.17;;
2996;SDS011;1508;48.744;9.110;2022-07-03T00:49:50;2.00;;;1.80;;
2996;SDS011;1508;48.744;9.110;2022-07-03T00:52:38;2.33;;;1.67;;
2996;SDS011;1508;48.744;9.110;2022-07-03T00:55:30;2.90;;;1.90;;
2996;SDS011;1508;48.744;9.110;2022-07-03T00:58:19;2.23;;;1.80;;
2996;SDS011;1508;48.744;9.110;2022-07-03T01:01:06;1.60;;;1.50;;
2996;SDS011;1508;48.744;9.110;2022-07-03T01:03:58;1.90;;;1.80;;
2996;SDS011;1508;48.744;9.110;2022-07-03T01:07:00;2.50;;;1.37;;
2996;SDS011;1508;48.744;9.110;2022-07-03T01:13:14;5.53;;;2.00;;
2996;SDS011;1508;48.744;9.110;2022-07-03T01:16:19;2.10;;;1.90;;
2996;SDS011;1508;48.744;9.110;2022-07-03T01:19:37;3.03;;;1.70;;
2996;SDS011;1508;48.744;9.110;2022-07-03T01:22:34;2.13;;;1.70;;
2996;SDS011;1508;48.744;9.110;2022-07-03T01:28:32;2.00;;;1.50;;
2996;SDS011;1508;48.744;9.110;2022-07-03T01:31:21;1.93;;;1.53;;
2996;SDS011;1508;48.744;9.110;2022-07-03T01:34:12;2.00;;;1.80;;
2996;SDS011;1508;48.744;9.110;2022-07-03T01:36:58;2.93;;;1.83;;
2996;SDS011;1508;48.744;9.110;2022-07-03T01:39:48;2.73;;;1.60;;
2996;SDS011;1508;48.744;9.110;2022-07-03T01:42:37;1.80;;;1.70;;
2996;SDS011;1508;48.744;9.110;2022-07-03T01:45:26;2.10;;;1.73;;
2996;SDS011;1508;48.744;9.110;2022-07-03T01:48:13;1.83;;;1.60;;
2996;SDS011;1508;48.744;9.110;2022-07-03T01:50:59;2.60;;;1.73;;
2996;SDS011;1508;48.744;9.110;2022-07-03T01:53:46;2.90;;;2.17;;
2996;SDS011;1508;48.744;9.110;2022-07-03T01:56:33;5.63;;;1.80;;
2996;SDS011;1508;48.744;9.110;2022-07-03T01:59:20;1.93;;;1.60;;
2996;SDS011;1508;48.744;9.110;2022-07-03T02:02:24;2.00;;;1.70;;
2996;SDS011;1508;48.744;9.110;2022-07-03T02:05:26;2.77;;;1.67;;
2996;SDS011;1508;48.744;9.110;2022-07-03T02:11:36;2.73;;;1.77;;
2996;SDS011;1508;48.744;9.110;2022-07-03T02:14:25;1.93;;;1.73;;
2996;SDS011;1508;48.744;9.110;2022-07-03T02:17:18;2.40;;;1.80;;
2996;SDS011;1508;48.744;9.110;2022-07-03T02:20:07;2.00;;;1.80;;
2996;SDS011;1508;48.744;9.110;2022-07-03T02:22:59;2.30;;;1.80;;
2996;SDS011;1508;48.744;9.110;2022-07-03T02:25:47;3.80;;;1.97;;
2996;SDS011;1508;48.744;9.110;2022-07-03T02:28:50;2.13;;;1.90;;
2996;SDS011;1508;48.744;9.110;2022-07-03T02:31:54;1.83;;;1.63;;
2996;SDS011;1508;48.744;9.110;2022-07-03T02:34:45;2.30;;;1.80;;
2996;SDS011;1508;48.744;9.110;2022-07-03T02:37:45;9.13;;;1.80;;
2996;SDS011;1508;48.744;9.110;2022-07-03T02:47:14;2.00;;;1.70;;
2996;SDS011;1508;48.744;9.110;2022-07-03T02:50:11;2.37;;;2.03;;
2996;SDS011;1508;48.744;9.110;2022-07-03T02:53:04;2.73;;;1.97;;
2996;SDS011;1508;48.744;9.110;2022-07-03T02:56:15;2.73;;;1.77;;
2996;SDS011;1508;48.744;9.110;2022-07-03T02:59:16;2.20;;;2.00;;
2996;SDS011;1508;48.744;9.110;2022-07-03T03:12:00;2.90;;;2.23;;
2996;SDS011;1508;48.744;9.110;2022-07-03T03:14:35;2.20;;;1.73;;
2996;SDS011;1508;48.744;9.110;2022-07-03T03:17:25;1.90;;;1.67;;
2996;SDS011;1508;48.744;9.110;2022-07-03T03:20:22;3.37;;;1.57;;
2996;SDS011;1508;48.744;9.110;2022-07-03T03:29:04;2.60;;;2.00;;
2996;SDS011;1508;48.744;9.110;2022-07-03T03:31:50;2.17;;;1.40;;
2996;SDS011;1508;48.744;9.110;2022-07-03T03:34:36;3.73;;;1.73;;
2996;SDS011;1508;48.744;9.110;2022-07-03T03:37:23;1.73;;;1.60;;
2996;SDS011;1508;48.744;9.110;2022-07-03T03:40:09;1.90;;;1.80;;
2996;SDS011;1508;48.744;9.110;2022-07-03T03:42:56;4.67;;;2.03;;
2996;SDS011;1508;48.744;9.110;2022-07-03T03:45:42;2.03;;;1.83;;
2996;SDS011;1508;48.744;9.110;2022-07-03T03:48:28;2.00;;;1.80;;
2996;SDS011;1508;48.744;9.110;2022-07-03T03:51:15;2.83;;;1.90;;
2996;SDS011;1508;48.744;9.110;2022-07-03T03:54:01;2.07;;;1.87;;
2996;SDS011;1508;48.744;9.110;2022-07-03T03:56:47;2.40;;;1.90;;
2996;SDS011;1508;48.744;9.110;2022-07-03T03:59:34;2.43;;;2.10;;
2996;SDS011;1508;48.744;9.110;2022-07-03T04:02:21;1.80;;;1.63;;
2996;SDS011;1508;48.744;9.110;2022-07-03T04:05:06;3.87;;;2.73;;
2996;SDS011;1508;48.744;9.110;2022-07-03T04:07:53;2.80;;;1.80;;
2996;SDS011;1508;48.744;9.110;2022-07-03T04:10:38;1.83;;;1.63;;
2996;SDS011;1508;48.744;9.110;2022-07-03T04:13:24;2.23;;;1.83;;
2996;SDS011;1508;48.744;9.110;2022-07-03T04:16:10;1.87;;;1.73;;
2996;SDS011;1508;48.744;9.110;2022-07-03T04:18:56;4.50;;;1.70;;
2996;SDS011;1508;48.744;9.110;2022-07-03T04:21:42;3.40;;;1.83;;
2996;SDS011;1508;48.744;9.110;2022-07-03T04:24:28;2.63;;;1.70;;
2996;SDS011;1508;48.744;9.110;2022-07-03T04:27:14;1.97;;;1.70;;
2996;SDS011;1508;48.744;9.110;2022-07-03T04:30:00;2.37;;;1.40;;
2996;SDS011;1508;48.744;9.110;2022-07-03T04:32:46;2.20;;;1.80;;
2996;SDS011;1508;48.744;9.110;2022-07-03T04:35:32;3.87;;;1.70;;
2996;SDS011;1508;48.744;9.110;2022-07-03T04:38:17;1.90;;;1.70;;
2996;SDS011;1508;48.744;9.110;2022-07-03T04:41:03;1.90;;;1.73;;
2996;SDS011;1508;48.744;9.110;2022-07-03T04:43:49;3.17;;;1.70;;
2996;SDS011;1508;48.744;9.110;2022-07-03T04:46:35;1.70;;;1.60;;
2996;SDS011;1508;48.744;9.110;2022-07-03T04:49:21;5.40;;;1.60;;
2996;SDS011;1508;48.744;9.110;2022-07-03T04:52:07;3.10;;;1.70;;
2996;SDS011;1508;48.744;9.110;2022-07-03T04:54:54;2.23;;;1.40;;
2996;SDS011;1508;48.744;9.110;2022-07-03T04:57:40;3.47;;;1.83;;
2996;SDS011;1508;48.744;9.110;2022-07-03T05:00:25;1.93;;;1.77;;
2996;SDS011;1508;48.744;9.110;2022-07-03T05:03:12;3.60;;;2.13;;
2996;SDS011;1508;48.744;9.110;2022-07-03T05:05:58;5.73;;;2.10;;
2996;SDS011;1508;48.744;9.110;2022-07-03T05:08:44;1.70;;;1.60;;
2996;SDS011;1508;48.744;9.110;2022-07-03T05:11:30;2.00;;;1.70;;
2996;SDS011;1508;48.744;9.110;2022-07-03T05:14:15;2.00;;;1.80;;
2996;SDS011;1508;48.744;9.110;2022-07-03T05:17:01;1.83;;;1.70;;
2996;SDS011;1508;48.744;9.110;2022-07-03T05:19:47;1.93;;;1.50;;
2996;SDS011;1508;48.744;9.110;2022-07-03T05:22:33;2.13;;;1.80;;
2996;SDS011;1508;48.744;9.110;2022-07-03T05:25:19;3.00;;;1.50;;
2996;SDS011;1508;48.744;9.110;2022-07-03T05:28:06;2.00;;;1.60;;
2996;SDS011;1508;48.744;9.110;2022-07-03T05:30:51;1.83;;;1.60;;
2996;SDS011;1508;48.744;9.110;2022-07-03T05:33:37;2.17;;;1.57;;
2996;SDS011;1508;48.744;9.110;2022-07-03T05:36:23;2.80;;;1.50;;
2996;SDS011;1508;48.744;9.110;2022-07-03T05:39:09;2.03;;;1.30;;
2996;SDS011;1508;48.744;9.110;2022-07-03T05:41:55;1.60;;;1.43;;
2996;SDS011;1508;48.744;9.110;2022-07-03T05:44:41;1.70;;;1.60;;
2996;SDS011;1508;48.744;9.110;2022-07-03T05:47:27;2.10;;;1.30;;
2996;SDS011;1508;48.744;9.110;2022-07-03T05:50:12;1.50;;;1.40;;
2996;SDS011;1508;48.744;9.110;2022-07-03T05:52:58;2.27;;;1.60;;
2996;SDS011;1508;48.744;9.110;2022-07-03T05:55:44;2.50;;;1.70;;
2996;SDS011;1508;48.744;9.110;2022-07-03T05:58:30;1.70;;;1.50;;
2996;SDS011;1508;48.744;9.110;2022-07-03T06:01:16;1.50;;;1.40;;
2996;SDS011;1508;48.744;9.110;2022-07-03T06:04:02;2.63;;;1.47;;
2996;SDS011;1508;48.744;9.110;2022-07-03T06:06:48;3.33;;;1.37;;
2996;SDS011;1508;48.744;9.110;2022-07-03T06:09:33;1.60;;;1.10;;
2996;SDS011;1508;48.744;9.110;2022-07-03T06:12:19;1.40;;;1.27;;
2996;SDS011;1508;48.744;9.110;2022-07-03T06:15:05;2.50;;;1.23;;
2996;SDS011;1508;48.744;9.110;2022-07-03T06:17:51;2.90;;;1.40;;
2996;SDS011;1508;48.744;9.110;2022-07-03T06:20:37;2.50;;;1.30;;
2996;SDS011;1508;48.744;9.110;2022-07-03T06:23:23;1.67;;;1.40;;
2996;SDS011;1508;48.744;9.110;2022-07-03T06:26:09;2.10;;;1.17;;
2996;SDS011;1508;48.744;9.110;2022-07-03T06:28:55;1.50;;;1.23;;
2996;SDS011;1508;48.744;9.110;2022-07-03T06:31:41;2.03;;;1.20;;
2996;SDS011;1508;48.744;9.110;2022-07-03T06:34:27;2.00;;;1.00;;
2996;SDS011;1508;48.744;9.110;2022-07-03T06:37:13;1.30;;;1.20;;
2996;SDS011;1508;48.744;9.110;2022-07-03T06:39:59;1.30;;;1.20;;
2996;SDS011;1508;48.744;9.110;2022-07-03T06:42:45;1.43;;;1.10;;
2996;SDS011;1508;48.744;9.110;2022-07-03T06:45:31;2.00;;;1.43;;
2996;SDS011;1508;48.744;9.110;2022-07-03T06:48:17;1.20;;;1.10;;
2996;SDS011;1508;48.744;9.110;2022-07-03T06:51:03;1.53;;;1.00;;
2996;SDS011;1508;48.744;9.110;2022-07-03T06:53:49;1.80;;;1.50;;
2996;SDS011;1508;48.744;9.110;2022-07-03T06:56:35;1.30;;;1.10;;
2996;SDS011;1508;48.744;9.110;2022-07-03T06:59:21;2.03;;;1.40;;
2996;SDS011;1508;48.744;9.110;2022-07-03T07:02:06;1.97;;;1.40;;
2996;SDS011;1508;48.744;9.110;2022-07-03T07:04:52;1.27;;;1.00;;
2996;SDS011;1508;48.744;9.110;2022-07-03T07:07:38;3.70;;;1.10;;
2996;SDS011;1508;48.744;9.110;2022-07-03T07:10:24;1.30;;;1.03;;
2996;SDS011;1508;48.744;9.110;2022-07-03T07:13:10;1.33;;;1.17;;
2996;SDS011;1508;48.744;9.110;2022-07-03T07:15:56;3.77;;;1.30;;
2996;SDS011;1508;48.744;9.110;2022-07-03T07:18:42;2.10;;;1.10;;
2996;SDS011;1508;48.744;9.110;2022-07-03T07:21:28;1.90;;;1.30;;
2996;SDS011;1508;48.744;9.110;2022-07-03T07:24:14;3.20;;;1.10;;
2996;SDS011;1508;48.744;9.110;2022-07-03T07:27:00;3.83;;;1.20;;
2996;SDS011;1508;48.744;9.110;2022-07-03T07:29:46;2.27;;;1.20;;
2996;SDS011;1508;48.744;9.110;2022-07-03T07:32:32;1.30;;;1.00;;
2996;SDS011;1508;48.744;9.110;2022-07-03T07:35:18;2.20;;;1.10;;
2996;SDS011;1508;48.744;9.110;2022-07-03T07:38:03;4.40;;;1.20;;
2996;SDS011;1508;48.744;9.110;2022-07-03T07:40:49;1.13;;;1.00;;
2996;SDS011;1508;48.744;9.110;2022-07-03T07:43:35;2.70;;;1.07;;
2996;SDS011;1508;48.744;9.110;2022-07-03T07:46:21;1.90;;;1.03;;
2996;SDS011;1508;48.744;9.110;2022-07-03T07:49:07;1.50;;;1.13;;
2996;SDS011;1508;48.744;9.110;2022-07-03T07:51:53;2.63;;;1.23;;
2996;SDS011;1508;48.744;9.110;2022-07-03T07:54:38;2.63;;;1.07;;
2996;SDS011;1508;48.744;9.110;2022-07-03T07:57:24;1.20;;;1.10;;
2996;SDS011;1508;48.744;9.110;2022-07-03T08:00:15;2.37;;;1.20;;
2996;SDS011;1508;48.744;9.110;2022-07-03T08:03:01;2.17;;;1.00;;
2996;SDS011;1508;48.744;9.110;2022-07-03T08:05:47;1.97;;;1.10;;
2996;SDS011;1508;48.744;9.110;2022-07-03T08:08:33;1.63;;;1.20;;
2996;SDS011;1508;48.744;9.110;2022-07-03T08:11:19;1.80;;;0.90;;
2996;SDS011;1508;48.744;9.110;2022-07-03T08:14:05;1.70;;;0.90;;
2996;SDS011;1508;48.744;9.110;2022-07-03T08:16:51;5.27;;;1.30;;
2996;SDS011;1508;48.744;9.110;2022-07-03T08:19:37;2.00;;;0.83;;
2996;SDS011;1508;48.744;9.110;2022-07-03T08:22:23;1.60;;;1.20;;
2996;SDS011;1508;48.744;9.110;2022-07-03T08:25:09;1.20;;;1.00;;
2996;SDS011;1508;48.744;9.110;2022-07-03T08:27:55;3.17;;;0.97;;
2996;SDS011;1508;48.744;9.110;2022-07-03T08:30:41;1.77;;;0.93;;
2996;SDS011;1508;48.744;9.110;2022-07-03T08:33:27;2.90;;;1.13;;
2996;SDS011;1508;48.744;9.110;2022-07-03T08:36:13;2.70;;;1.10;;
2996;SDS011;1508;48.744;9.110;2022-07-03T08:38:59;1.10;;;1.00;;
2996;SDS011;1508;48.744;9.110;2022-07-03T08:41:45;2.20;;;1.50;;
2996;SDS011;1508;48.744;9.110;2022-07-03T08:44:35;7.73;;;1.40;;
2996;SDS011;1508;48.744;9.110;2022-07-03T08:47:22;6.10;;;1.00;;
2996;SDS011;1508;48.744;9.110;2022-07-03T08:50:10;1.63;;;0.83;;
2996;SDS011;1508;48.744;9.110;2022-07-03T08:52:56;2.83;;;1.37;;
2996;SDS011;1508;48.744;9.110;2022-07-03T08:55:45;2.87;;;0.87;;
2996;SDS011;1508;48.744;9.110;2022-07-03T08:58:32;2.20;;;0.90;;
2996;SDS011;1508;48.744;9.110;2022-07-03T09:01:18;1.10;;;0.80;;
2996;SDS011;1508;48.744;9.110;2022-07-03T09:04:04;0.90;;;0.70;;
2996;SDS011;1508;48.744;9.110;2022-07-03T09:06:51;1.20;;;1.10;;
2996;SDS011;1508;48.744;9.110;2022-07-03T09:09:37;1.00;;;0.80;;
2996;SDS011;1508;48.744;9.110;2022-07-03T09:12:24;1.00;;;0.80;;
2996;SDS011;1508;48.744;9.110;2022-07-03T09:15:11;1.00;;;0.80;;
2996;SDS011;1508;48.744;9.110;2022-07-03T09:17:58;1.10;;;0.77;;
2996;SDS011;1508;48.744;9.110;2022-07-03T09:20:51;1.13;;;1.00;;
2996;SDS011;1508;48.744;9.110;2022-07-03T09:23:47;1.10;;;0.93;;
2996;SDS011;1508;48.744;9.110;2022-07-03T09:26:33;1.40;;;0.90;;
2996;SDS011;1508;48.744;9.110;2022-07-03T09:29:20;1.40;;;0.90;;
2996;SDS011;1508;48.744;9.110;2022-07-03T09:32:06;1.30;;;0.80;;
2996;SDS011;1508;48.744;9.110;2022-07-03T09:38:07;3.50;;;0.90;;
2996;SDS011;1508;48.744;9.110;2022-07-03T09:40:53;1.73;;;1.00;;
2996;SDS011;1508;48.744;9.110;2022-07-03T09:43:43;4.90;;;1.43;;
2996;SDS011;1508;48.744;9.110;2022-07-03T09:46:29;6.70;;;1.00;;
2996;SDS011;1508;48.744;9.110;2022-07-03T09:49:15;2.13;;;0.90;;
2996;SDS011;1508;48.744;9.110;2022-07-03T09:52:01;2.40;;;0.97;;
2996;SDS011;1508;48.744;9.110;2022-07-03T09:54:47;2.03;;;1.00;;
2996;SDS011;1508;48.744;9.110;2022-07-03T09:57:33;2.03;;;0.90;;
2996;SDS011;1508;48.744;9.110;2022-07-03T10:03:08;1.70;;;1.13;;
2996;SDS011;1508;48.744;9.110;2022-07-03T10:05:55;2.30;;;0.90;;
2996;SDS011;1508;48.744;9.110;2022-07-03T10:08:48;1.43;;;1.00;;
2996;SDS011;1508;48.744;9.110;2022-07-03T10:11:35;1.00;;;0.80;;
2996;SDS011;1508;48.744;9.110;2022-07-03T10:14:23;2.63;;;0.87;;
2996;SDS011;1508;48.744;9.110;2022-07-03T10:17:10;2.63;;;1.00;;
2996;SDS011;1508;48.744;9.110;2022-07-03T10:19:56;1.00;;;0.90;;
2996;SDS011;1508;48.744;9.110;2022-07-03T10:22:44;1.10;;;0.90;;
2996;SDS011;1508;48.744;9.110;2022-07-03T10:25:33;1.33;;;1.00;;
2996;SDS011;1508;48.744;9.110;2022-07-03T10:28:19;2.30;;;1.10;;
2996;SDS011;1508;48.744;9.110;2022-07-03T10:31:06;0.90;;;0.80;;
2996;SDS011;1508;48.744;9.110;2022-07-03T10:33:53;1.73;;;0.90;;
2996;SDS011;1508;48.744;9.110;2022-07-03T10:36:39;3.47;;;1.17;;
2996;SDS011;1508;48.744;9.110;2022-07-03T10:39:38;2.43;;;1.50;;
2996;SDS011;1508;48.744;9.110;2022-07-03T10:42:34;1.20;;;0.90;;
2996;SDS011;1508;48.744;9.110;2022-07-03T10:45:21;2.03;;;1.10;;
2996;SDS011;1508;48.744;9.110;2022-07-03T10:48:07;1.53;;;1.43;;
2996;SDS011;1508;48.744;9.110;2022-07-03T10:51:10;1.20;;;1.00;;
2996;SDS011;1508;48.744;9.110;2022-07-03T10:54:13;1.13;;;1.00;;
2996;SDS011;1508;48.744;9.110;2022-07-03T10:57:14;1.23;;;0.80;;
2996;SDS011;1508;48.744;9.110;2022-07-03T11:00:03;1.20;;;0.90;;
2996;SDS011;1508;48.744;9.110;2022-07-03T11:02:50;1.13;;;0.80;;
2996;SDS011;1508;48.744;9.110;2022-07-03T11:05:36;1.03;;;0.93;;
2996;SDS011;1508;48.744;9.110;2022-07-03T11:08:22;1.40;;;0.90;;
2996;SDS011;1508;48.744;9.110;2022-07-03T11:11:23;0.93;;;0.83;;
2996;SDS011;1508;48.744;9.110;2022-07-03T11:14:27;1.10;;;0.80;;
2996;SDS011;1508;48.744;9.110;2022-07-03T11:20:04;1.67;;;1.20;;
2996;SDS011;1508;48.744;9.110;2022-07-03T11:25:43;1.23;;;0.93;;
2996;SDS011;1508;48.744;9.110;2022-07-03T11:31:16;2.17;;;1.20;;
2996;SDS011;1508;48.744;9.110;2022-07-03T11:34:04;1.10;;;0.90;;
2996;SDS011;1508;48.744;9.110;2022-07-03T11:36:50;2.40;;;1.03;;
2996;SDS011;1508;48.744;9.110;2022-07-03T11:39:36;1.77;;;1.00;;
2996;SDS011;1508;48.744;9.110;2022-07-03T11:42:22;2.03;;;0.80;;
2996;SDS011;1508;48.744;9.110;2022-07-03T11:45:08;1.10;;;0.90;;
2996;SDS011;1508;48.744;9.110;2022-07-03T11:47:54;2.03;;;0.80;;
2996;SDS011;1508;48.744;9.110;2022-07-03T11:50:45;1.60;;;1.20;;
2996;SDS011;1508;48.744;9.110;2022-07-03T11:53:33;1.00;;;0.90;;
2996;SDS011;1508;48.744;9.110;2022-07-03T11:56:20;1.10;;;0.70;;
2996;SDS011;1508;48.744;9.110;2022-07-03T11:59:06;1.60;;;0.90;;
2996;SDS011;1508;48.744;9.110;2022-07-03T12:01:52;3.53;;;0.80;;
2996;SDS011;1508;48.744;9.110;2022-07-03T12:04:46;1.00;;;0.80;;
2996;SDS011;1508;48.744;9.110;2022-07-03T12:07:32;1.20;;;1.00;;
2996;SDS011;1508;48.744;9.110;2022-07-03T12:10:18;2.73;;;1.00;;
2996;SDS011;1508;48.744;9.110;2022-07-03T12:13:04;2.57;;;1.03;;
2996;SDS011;1508;48.744;9.110;2022-07-03T12:16:04;1.87;;;0.90;;
2996;SDS011;1508;48.744;9.110;2022-07-03T12:18:53;1.27;;;1.10;;
2996;SDS011;1508;48.744;9.110;2022-07-03T12:21:39;1.20;;;0.70;;
2996;SDS011;1508;48.744;9.110;2022-07-03T12:24:25;1.00;;;0.80;;
2996;SDS011;1508;48.744;9.110;2022-07-03T12:27:11;1.20;;;0.90;;
2996;SDS011;1508;48.744;9.110;2022-07-03T12:29:57;1.10;;;0.90;;
2996;SDS011;1508;48.744;9.110;2022-07-03T12:32:44;1.50;;;1.37;;
2996;SDS011;1508;48.744;9.110;2022-07-03T12:35:31;2.40;;;0.80;;
2996;SDS011;1508;48.744;9.110;2022-07-03T12:38:29;1.47;;;0.90;;
2996;SDS011;1508;48.744;9.110;2022-07-03T12:41:15;2.60;;;0.90;;
2996;SDS011;1508;48.744;9.110;2022-07-03T12:44:01;1.60;;;0.90;;
2996;SDS011;1508;48.744;9.110;2022-07-03T12:46:47;2.30;;;1.00;;
2996;SDS011;1508;48.744;9.110;2022-07-03T12:49:33;8.40;;;1.20;;
2996;SDS011;1508;48.744;9.110;2022-07-03T12:52:19;2.37;;;0.90;;
2996;SDS011;1508;48.744;9.110;2022-07-03T12:55:04;1.33;;;1.00;;
2996;SDS011;1508;48.744;9.110;2022-07-03T12:58:09;1.37;;;0.70;;
2996;SDS011;1508;48.744;9.110;2022-07-03T13:01:01;2.47;;;0.90;;
2996;SDS011;1508;48.744;9.110;2022-07-03T13:03:48;1.20;;;0.80;;
2996;SDS011;1508;48.744;9.110;2022-07-03T13:06:34;1.33;;;0.80;;
2996;SDS011;1508;48.744;9.110;2022-07-03T13:09:24;2.20;;;0.90;;
2996;SDS011;1508;48.744;9.110;2022-07-03T13:12:10;1.10;;;0.90;;
2996;SDS011;1508;48.744;9.110;2022-07-03T13:15:08;2.13;;;0.90;;
2996;SDS011;1508;48.744;9.110;2022-07-03T13:20:40;1.37;;;1.00;;
2996;SDS011;1508;48.744;9.110;2022-07-03T13:23:26;1.10;;;0.80;;
2996;SDS011;1508;48.744;9.110;2022-07-03T13:26:12;1.67;;;0.90;;
2996;SDS011;1508;48.744;9.110;2022-07-03T13:28:57;2.30;;;1.30;;
2996;SDS011;1508;48.744;9.110;2022-07-03T13:31:43;1.20;;;0.90;;
2996;SDS011;1508;48.744;9.110;2022-07-03T13:34:29;1.50;;;1.20;;
2996;SDS011;1508;48.744;9.110;2022-07-03T13:37:15;1.83;;;0.80;;
2996;SDS011;1508;48.744;9.110;2022-07-03T13:40:02;1.40;;;1.10;;
2996;SDS011;1508;48.744;9.110;2022-07-03T13:42:49;1.10;;;0.90;;
2996;SDS011;1508;48.744;9.110;2022-07-03T13:45:35;1.53;;;0.90;;
2996;SDS011;1508;48.744;9.110;2022-07-03T13:48:21;1.60;;;1.20;;
2996;SDS011;1508;48.744;9.110;2022-07-03T13:51:06;1.13;;;1.00;;
2996;SDS011;1508;48.744;9.110;2022-07-03T13:53:52;1.40;;;1.00;;
2996;SDS011;1508;48.744;9.110;2022-07-03T13:56:38;2.10;;;1.00;;
2996;SDS011;1508;48.744;9.110;2022-07-03T13:59:24;1.00;;;0.90;;
2996;SDS011;1508;48.744;9.110;2022-07-03T14:02:10;1.70;;;1.00;;
2996;SDS011;1508;48.744;9.110;2022-07-03T14:04:56;2.80;;;1.17;;
2996;SDS011;1508;48.744;9.110;2022-07-03T14:07:42;1.20;;;1.00;;
2996;SDS011;1508;48.744;9.110;2022-07-03T14:10:27;3.23;;;1.00;;
2996;SDS011;1508;48.744;9.110;2022-07-03T14:13:13;3.80;;;1.30;;
2996;SDS011;1508;48.744;9.110;2022-07-03T14:15:59;1.93;;;1.30;;
2996;SDS011;1508;48.744;9.110;2022-07-03T14:18:46;2.60;;;1.37;;
2996;SDS011;1508;48.744;9.110;2022-07-03T14:21:32;2.93;;;1.00;;
2996;SDS011;1508;48.744;9.110;2022-07-03T14:24:18;1.37;;;0.90;;
2996;SDS011;1508;48.744;9.110;2022-07-03T14:27:04;2.80;;;1.17;;
2996;SDS011;1508;48.744;9.110;2022-07-03T14:29:50;1.30;;;1.10;;
2996;SDS011;1508;48.744;9.110;2022-07-03T14:32:36;2.00;;;1.10;;
2996;SDS011;1508;48.744;9.110;2022-07-03T14:35:22;1.50;;;1.37;;
2996;SDS011;1508;48.744;9.110;2022-07-03T14:38:08;2.63;;;1.30;;
2996;SDS011;1508;48.744;9.110;2022-07-03T14:40:54;3.00;;;1.17;;
2996;SDS011;1508;48.744;9.110;2022-07-03T14:43:39;1.50;;;1.13;;
2996;SDS011;1508;48.744;9.110;2022-07-03T14:46:25;1.70;;;1.10;;
2996;SDS011;1508;48.744;9.110;2022-07-03T14:49:11;1.57;;;0.90;;
2996;SDS011;1508;48.744;9.110;2022-07-03T14:52:00;2.30;;;1.23;;
2996;SDS011;1508;48.744;9.110;2022-07-03T14:54:47;3.10;;;1.23;;
2996;SDS011;1508;48.744;9.110;2022-07-03T15:00:26;6.23;;;1.20;;
2996;SDS011;1508;48.744;9.110;2022-07-03T15:03:16;1.87;;;0.90;;
2996;SDS011;1508;48.744;9.110;2022-07-03T15:06:08;1.30;;;1.10;;
2996;SDS011;1508;48.744;9.110;2022-07-03T15:08:59;4.40;;;1.10;;
2996;SDS011;1508;48.744;9.110;2022-07-03T15:11:47;1.07;;;0.97;;
2996;SDS011;1508;48.744;9.110;2022-07-03T15:14:43;1.57;;;1.20;;
2996;SDS011;1508;48.744;9.110;2022-07-03T15:17:30;1.40;;;1.10;;
2996;SDS011;1508;48.744;9.110;2022-07-03T15:20:18;1.50;;;1.13;;
2996;SDS011;1508;48.744;9.110;2022-07-03T15:23:05;1.43;;;1.10;;
2996;SDS011;1508;48.744;9.110;2022-07-03T15:25:51;2.70;;;1.20;;
2996;SDS011;1508;48.744;9.110;2022-07-03T15:28:37;1.70;;;1.10;;
2996;SDS011;1508;48.744;9.110;2022-07-03T15:31:24;2.60;;;1.00;;
2996;SDS011;1508;48.744;9.110;2022-07-03T15:34:14;2.67;;;1.00;;
2996;SDS011;1508;48.744;9.110;2022-07-03T15:40:05;1.00;;;0.80;;
2996;SDS011;1508;48.744;9.110;2022-07-03T16:00:34;1.30;;;1.10;;
2996;SDS011;1508;48.744;9.110;2022-07-03T16:06:12;1.20;;;0.87;;
2996;SDS011;1508;48.744;9.110;2022-07-03T16:08:58;1.60;;;1.00;;
2996;SDS011;1508;48.744;9.110;2022-07-03T16:11:44;2.17;;;0.97;;
2996;SDS011;1508;48.744;9.110;2022-07-03T16:14:31;1.87;;;1.00;;
2996;SDS011;1508;48.744;9.110;2022-07-03T16:17:19;1.73;;;1.00;;
2996;SDS011;1508;48.744;9.110;2022-07-03T16:20:07;2.63;;;1.00;;
2996;SDS011;1508;48.744;9.110;2022-07-03T16:23:04;1.70;;;0.80;;
2996;SDS011;1508;48.744;9.110;2022-07-03T16:25:52;3.57;;;0.93;;
2996;SDS011;1508;48.744;9.110;2022-07-03T16:28:40;1.73;;;1.10;;
2996;SDS011;1508;48.744;9.110;2022-07-03T16:31:32;1.30;;;0.87;;
2996;SDS011;1508;48.744;9.110;2022-07-03T16:34:34;1.50;;;0.93;;
2996;SDS011;1508;48.744;9.110;2022-07-03T16:37:31;3.07;;;1.20;;
2996;SDS011;1508;48.744;9.110;2022-07-03T16:40:25;1.57;;;0.80;;
2996;SDS011;1508;48.744;9.110;2022-07-03T16:43:12;1.47;;;1.03;;
2996;SDS011;1508;48.744;9.110;2022-07-03T16:46:02;1.50;;;1.20;;
2996;SDS011;1508;48.744;9.110;2022-07-03T16:48:49;1.17;;;0.90;;
2996;SDS011;1508;48.744;9.110;2022-07-03T16:51:39;1.50;;;0.90;;
2996;SDS011;1508;48.744;9.110;2022-07-03T16:54:29;2.20;;;1.07;;
2996;SDS011;1508;48.744;9.110;2022-07-03T16:57:15;1.63;;;1.10;;
2996;SDS011;1508;48.744;9.110;2022-07-03T17:00:02;1.70;;;0.90;;
2996;SDS011;1508;48.744;9.110;2022-07-03T17:02:48;2.30;;;1.10;;
2996;SDS011;1508;48.744;9.110;2022-07-03T17:05:36;2.03;;;1.03;;
2996;SDS011;1508;48.744;9.110;2022-07-03T17:08:22;1.37;;;1.10;;
2996;SDS011;1508;48.744;9.110;2022-07-03T17:11:08;2.40;;;1.00;;
2996;SDS011;1508;48.744;9.110;2022-07-03T17:13:54;5.70;;;1.20;;
2996;SDS011;1508;48.744;9.110;2022-07-03T17:16:44;1.30;;;1.00;;
2996;SDS011;1508;48.744;9.110;2022-07-03T17:19:44;3.73;;;1.10;;
2996;SDS011;1508;48.744;9.110;2022-07-03T17:22:42;1.50;;;1.10;;
2996;SDS011;1508;48.744;9.110;2022-07-03T17:25:32;3.03;;;1.10;;
2996;SDS011;1508;48.744;9.110;2022-07-03T17:31:27;3.93;;;1.13;;
2996;SDS011;1508;48.744;9.110;2022-07-03T17:34:21;3.00;;;1.20;;
2996;SDS011;1508;48.744;9.110;2022-07-03T17:37:08;2.13;;;1.10;;
2996;SDS011;1508;48.744;9.110;2022-07-03T17:39:55;1.13;;;1.00;;
2996;SDS011;1508;48.744;9.110;2022-07-03T17:42:41;1.53;;;1.17;;
2996;SDS011;1508;48.744;9.110;2022-07-03T17:45:28;1.10;;;0.93;;
2996;SDS011;1508;48.744;9.110;2022-07-03T17:48:14;2.40;;;0.90;;
2996;SDS011;1508;48.744;9.110;2022-07-03T17:51:00;2.67;;;1.20;;
2996;SDS011;1508;48.744;9.110;2022-07-03T17:53:47;1.93;;;1.33;;
2996;SDS011;1508;48.744;9.110;2022-07-03T17:56:33;1.83;;;1.10;;
2996;SDS011;1508;48.744;9.110;2022-07-03T17:59:20;1.67;;;1.20;;
2996;SDS011;1508;48.744;9.110;2022-07-03T18:02:06;1.67;;;1.00;;
2996;SDS011;1508;48.744;9.110;2022-07-03T18:04:55;3.63;;;1.67;;
2996;SDS011;1508;48.744;9.110;2022-07-03T18:11:01;2.13;;;1.10;;
2996;SDS011;1508;48.744;9.110;2022-07-03T18:13:51;1.27;;;1.10;;
2996;SDS011;1508;48.744;9.110;2022-07-03T18:16:44;1.10;;;0.90;;
2996;SDS011;1508;48.744;9.110;2022-07-03T18:19:31;1.63;;;1.20;;
2996;SDS011;1508;48.744;9.110;2022-07-03T18:22:17;1.70;;;1.00;;
2996;SDS011;1508;48.744;9.110;2022-07-03T18:25:06;1.90;;;1.10;;
2996;SDS011;1508;48.744;9.110;2022-07-03T18:27:52;2.50;;;1.23;;
2996;SDS011;1508;48.744;9.110;2022-07-03T18:30:39;1.87;;;1.40;;
2996;SDS011;1508;48.744;9.110;2022-07-03T18:33:27;1.23;;;0.97;;
2996;SDS011;1508;48.744;9.110;2022-07-03T18:36:16;2.00;;;0.90;;
2996;SDS011;1508;48.744;9.110;2022-07-03T18:39:03;3.13;;;1.10;;
2996;SDS011;1508;48.744;9.110;2022-07-03T18:41:50;2.43;;;1.30;;
2996;SDS011;1508;48.744;9.110;2022-07-03T18:44:36;1.30;;;1.00;;
2996;SDS011;1508;48.744;9.110;2022-07-03T18:47:23;1.50;;;1.00;;